sensor_id;sensor_type;location;lat;lon;timestamp;pressure;altitude;pressure_sealevel;temperature;humidity
11971;BME280;6045;42.682;23.294;2022-08-25T00:01:11;94533.31;;;21.72;85.11
11971;BME280;6045;42.682;23.294;2022-08-25T00:03:39;94533.59;;;21.71;85.50
11971;BME280;6045;42.682;23.294;2022-08-25T00:06:07;94525.03;;;21.77;85.90
11971;BME280;6045;42.682;23.294;2022-08-25T00:08:35;94531.94;;;21.89;86.10
11971;BME280;6045;42.682;23.294;2022-08-25T00:11:03;94531.22;;;21.97;85.45
11971;BME280;6045;42.682;23.294;2022-08-25T00:13:31;94530.31;;;22.01;85.35
11971;BME280;6045;42.682;23.294;2022-08-25T00:16:00;94537.56;;;22.06;85.04
11971;BME280;6045;42.682;23.294;2022-08-25T00:18:26;94533.13;;;22.10;84.62
11971;BME280;6045;42.682;23.294;2022-08-25T00:20:53;94534.94;;;22.14;84.27
11971;BME280;6045;42.682;23.294;2022-08-25T00:23:20;94522.63;;;22.17;84.38
11971;BME280;6045;42.682;23.294;2022-08-25T00:25:47;94520.31;;;22.24;83.94
11971;BME280;6045;42.682;23.294;2022-08-25T00:28:15;94523.66;;;22.21;83.30
11971;BME280;6045;42.682;23.294;2022-08-25T00:30:43;94529.22;;;22.16;83.28
11971;BME280;6045;42.682;23.294;2022-08-25T00:33:11;94518.53;;;22.06;83.25
11971;BME280;6045;42.682;23.294;2022-08-25T00:35:39;94524.47;;;22.08;83.88
11971;BME280;6045;42.682;23.294;2022-08-25T00:38:06;94522.75;;;22.12;84.15
11971;BME280;6045;42.682;23.294;2022-08-25T00:40:33;94514.56;;;22.12;83.84
11971;BME280;6045;42.682;23.294;2022-08-25T00:43:01;94520.34;;;22.10;84.51
11971;BME280;6045;42.682;23.294;2022-08-25T00:45:28;94512.16;;;22.10;83.94
11971;BME280;6045;42.682;23.294;2022-08-25T00:47:54;94530.31;;;22.15;83.97
11971;BME280;6045;42.682;23.294;2022-08-25T00:50:23;94528.56;;;22.19;83.71
11971;BME280;6045;42.682;23.294;2022-08-25T00:52:53;94531.53;;;22.22;83.88
11971;BME280;6045;42.682;23.294;2022-08-25T00:55:24;94529.88;;;22.21;83.24
11971;BME280;6045;42.682;23.294;2022-08-25T00:57:56;94531.41;;;22.27;83.32
11971;BME280;6045;42.682;23.294;2022-08-25T01:00:31;94532.41;;;22.31;82.94
11971;BME280;6045;42.682;23.294;2022-08-25T01:02:58;94527.28;;;22.30;82.88
11971;BME280;6045;42.682;23.294;2022-08-25T01:05:27;94524.66;;;22.25;82.99
11971;BME280;6045;42.682;23.294;2022-08-25T01:07:56;94514.88;;;22.24;83.42
11971;BME280;6045;42.682;23.294;2022-08-25T01:10:25;94503.28;;;22.18;83.82
11971;BME280;6045;42.682;23.294;2022-08-25T01:12:57;94486.16;;;22.04;84.36
11971;BME280;6045;42.682;23.294;2022-08-25T01:15:25;94502.28;;;22.01;84.97
11971;BME280;6045;42.682;23.294;2022-08-25T01:17:54;94498.66;;;22.05;85.07
11971;BME280;6045;42.682;23.294;2022-08-25T01:20:24;94496.03;;;22.14;84.71
11971;BME280;6045;42.682;23.294;2022-08-25T01:22:54;94511.25;;;22.15;84.59
11971;BME280;6045;42.682;23.294;2022-08-25T01:25:26;94504.72;;;22.16;84.43
11971;BME280;6045;42.682;23.294;2022-08-25T01:27:56;94494.59;;;22.16;85.00
11971;BME280;6045;42.682;23.294;2022-08-25T01:30:24;94501.16;;;22.15;84.59
11971;BME280;6045;42.682;23.294;2022-08-25T01:32:52;94501.28;;;22.10;84.38
11971;BME280;6045;42.682;23.294;2022-08-25T01:35:19;94503.81;;;22.07;84.09
11971;BME280;6045;42.682;23.294;2022-08-25T01:37:46;94500.28;;;22.06;84.64
11971;BME280;6045;42.682;23.294;2022-08-25T01:40:15;94504.31;;;22.09;84.24
11971;BME280;6045;42.682;23.294;2022-08-25T01:42:52;94500.28;;;22.06;84.43
11971;BME280;6045;42.682;23.294;2022-08-25T01:45:19;94505.22;;;22.04;84.66
11971;BME280;6045;42.682;23.294;2022-08-25T01:47:46;94502.19;;;22.06;84.39
11971;BME280;6045;42.682;23.294;2022-08-25T01:50:13;94501.69;;;22.04;84.43
11971;BME280;6045;42.682;23.294;2022-08-25T01:52:49;94501.69;;;22.04;84.21
11971;BME280;6045;42.682;23.294;2022-08-25T01:55:17;94509.34;;;22.02;83.88
11971;BME280;6045;42.682;23.294;2022-08-25T01:57:45;94506.13;;;22.00;83.61
11971;BME280;6045;42.682;23.294;2022-08-25T02:00:14;94506.63;;;22.02;83.70
11971;BME280;6045;42.682;23.294;2022-08-25T02:02:41;94497.66;;;22.01;84.53
11971;BME280;6045;42.682;23.294;2022-08-25T02:05:09;94499.66;;;21.96;83.91
11971;BME280;6045;42.682;23.294;2022-08-25T02:07:39;94495.25;;;22.00;84.28
11971;BME280;6045;42.682;23.294;2022-08-25T02:10:10;94500.38;;;22.01;84.19
11971;BME280;6045;42.682;23.294;2022-08-25T02:12:39;94493.53;;;22.04;84.03
11971;BME280;6045;42.682;23.294;2022-08-25T02:15:07;94495.13;;;22.05;84.05
11971;BME280;6045;42.682;23.294;2022-08-25T02:17:34;94491.28;;;22.06;84.40
11971;BME280;6045;42.682;23.294;2022-08-25T02:20:03;94487.97;;;22.09;83.88
11971;BME280;6045;42.682;23.294;2022-08-25T02:22:30;94486.56;;;22.11;83.77
11971;BME280;6045;42.682;23.294;2022-08-25T02:24:57;94490.69;;;22.09;83.82
11971;BME280;6045;42.682;23.294;2022-08-25T02:27:24;94490.97;;;22.07;83.23
11971;BME280;6045;42.682;23.294;2022-08-25T02:29:52;94486.34;;;22.08;82.30
11971;BME280;6045;42.682;23.294;2022-08-25T02:32:19;94488.28;;;21.94;81.84
11971;BME280;6045;42.682;23.294;2022-08-25T02:34:46;94485.47;;;21.85;82.82
11971;BME280;6045;42.682;23.294;2022-08-25T02:37:13;94480.50;;;21.73;83.37
11971;BME280;6045;42.682;23.294;2022-08-25T02:39:39;94487.94;;;21.68;83.69
11971;BME280;6045;42.682;23.294;2022-08-25T02:42:06;94489.56;;;21.69;84.95
11971;BME280;6045;42.682;23.294;2022-08-25T02:44:33;94490.66;;;21.68;83.86
11971;BME280;6045;42.682;23.294;2022-08-25T02:47:02;94495.81;;;21.69;83.82
11971;BME280;6045;42.682;23.294;2022-08-25T02:49:29;94491.97;;;21.70;84.50
11971;BME280;6045;42.682;23.294;2022-08-25T02:51:56;94487.84;;;21.73;83.76
11971;BME280;6045;42.682;23.294;2022-08-25T02:54:24;94488.84;;;21.77;84.03
11971;BME280;6045;42.682;23.294;2022-08-25T02:56:51;94492.88;;;21.79;82.99
11971;BME280;6045;42.682;23.294;2022-08-25T02:59:18;94492.88;;;21.79;83.36
11971;BME280;6045;42.682;23.294;2022-08-25T03:01:45;94501.28;;;21.83;83.23
11971;BME280;6045;42.682;23.294;2022-08-25T03:04:13;94500.38;;;21.88;83.07
11971;BME280;6045;42.682;23.294;2022-08-25T03:06:40;94509.56;;;21.92;83.31
11971;BME280;6045;42.682;23.294;2022-08-25T03:09:07;94509.47;;;21.97;82.90
11971;BME280;6045;42.682;23.294;2022-08-25T03:11:34;94505.31;;;21.99;82.53
11971;BME280;6045;42.682;23.294;2022-08-25T03:14:02;94505.22;;;22.04;82.52
11971;BME280;6045;42.682;23.294;2022-08-25T03:16:29;94497.84;;;22.05;82.50
11971;BME280;6045;42.682;23.294;2022-08-25T03:18:56;94494.34;;;22.04;82.79
11971;BME280;6045;42.682;23.294;2022-08-25T03:21:26;94495.66;;;22.07;82.49
11971;BME280;6045;42.682;23.294;2022-08-25T03:23:53;94497.25;;;22.08;82.87
11971;BME280;6045;42.682;23.294;2022-08-25T03:26:20;94498.38;;;22.07;82.21
11971;BME280;6045;42.682;23.294;2022-08-25T03:29:05;94500.56;;;22.05;82.66
11971;BME280;6045;42.682;23.294;2022-08-25T03:31:33;94502.19;;;22.06;82.69
11971;BME280;6045;42.682;23.294;2022-08-25T03:34:01;94507.31;;;22.07;82.34
11971;BME280;6045;42.682;23.294;2022-08-25T03:36:29;94492.78;;;22.12;83.95
11971;BME280;6045;42.682;23.294;2022-08-25T03:38:56;94506.47;;;22.34;85.58
11971;BME280;6045;42.682;23.294;2022-08-25T03:41:24;94506.03;;;22.54;84.97
11971;BME280;6045;42.682;23.294;2022-08-25T03:43:53;94503.97;;;22.73;83.25
11971;BME280;6045;42.682;23.294;2022-08-25T03:46:22;94509.34;;;23.00;80.44
11971;BME280;6045;42.682;23.294;2022-08-25T03:48:50;94498.53;;;23.17;78.92
11971;BME280;6045;42.682;23.294;2022-08-25T03:51:21;94495.81;;;23.40;77.68
11971;BME280;6045;42.682;23.294;2022-08-25T03:53:50;94497.03;;;23.56;76.27
11971;BME280;6045;42.682;23.294;2022-08-25T03:56:17;94494.19;;;23.69;75.65
11971;BME280;6045;42.682;23.294;2022-08-25T03:58:44;94499.03;;;23.72;74.45
11971;BME280;6045;42.682;23.294;2022-08-25T04:01:12;94500.81;;;23.77;74.65
11971;BME280;6045;42.682;23.294;2022-08-25T04:03:39;94495.06;;;23.78;74.86
11971;BME280;6045;42.682;23.294;2022-08-25T04:06:06;94495.06;;;23.87;74.26
11971;BME280;6045;42.682;23.294;2022-08-25T04:08:34;94497.34;;;23.94;74.23
11971;BME280;6045;42.682;23.294;2022-08-25T04:11:06;94494.00;;;23.97;73.75
11971;BME280;6045;42.682;23.294;2022-08-25T04:13:33;94498.19;;;24.03;73.69
11971;BME280;6045;42.682;23.294;2022-08-25T04:16:00;94500.16;;;24.11;73.02
11971;BME280;6045;42.682;23.294;2022-08-25T04:18:27;94499.47;;;24.05;73.10
11971;BME280;6045;42.682;23.294;2022-08-25T04:21:01;94494.38;;;24.12;72.63
11971;BME280;6045;42.682;23.294;2022-08-25T04:23:29;94499.41;;;24.19;72.15
11971;BME280;6045;42.682;23.294;2022-08-25T04:25:56;94493.63;;;24.20;72.16
11971;BME280;6045;42.682;23.294;2022-08-25T04:28:24;94489.28;;;24.28;72.33
11971;BME280;6045;42.682;23.294;2022-08-25T04:30:51;94483.03;;;24.27;72.39
11971;BME280;6045;42.682;23.294;2022-08-25T04:33:18;94482.41;;;24.30;72.96
11971;BME280;6045;42.682;23.294;2022-08-25T04:35:47;94482.53;;;24.34;73.03
11971;BME280;6045;42.682;23.294;2022-08-25T04:38:14;94480.97;;;24.41;71.99
11971;BME280;6045;42.682;23.294;2022-08-25T04:40:41;94491.59;;;24.52;72.09
11971;BME280;6045;42.682;23.294;2022-08-25T04:43:08;94488.84;;;24.60;71.15
11971;BME280;6045;42.682;23.294;2022-08-25T04:45:38;94493.84;;;24.67;71.07
11971;BME280;6045;42.682;23.294;2022-08-25T04:48:05;94490.47;;;24.70;70.94
11971;BME280;6045;42.682;23.294;2022-08-25T04:50:32;94499.03;;;24.77;70.50
11971;BME280;6045;42.682;23.294;2022-08-25T04:53:00;94500.47;;;24.83;70.68
11971;BME280;6045;42.682;23.294;2022-08-25T04:55:27;94510.13;;;24.89;70.01
11971;BME280;6045;42.682;23.294;2022-08-25T04:57:54;94505.78;;;24.96;70.37
11971;BME280;6045;42.682;23.294;2022-08-25T05:00:21;94502.41;;;25.08;70.02
11971;BME280;6045;42.682;23.294;2022-08-25T05:02:49;94504.47;;;25.28;70.61
11971;BME280;6045;42.682;23.294;2022-08-25T05:05:16;94504.47;;;25.45;70.07
11971;BME280;6045;42.682;23.294;2022-08-25T05:07:44;94504.78;;;25.52;69.04
11971;BME280;6045;42.682;23.294;2022-08-25T05:10:12;94507.94;;;25.63;68.89
11971;BME280;6045;42.682;23.294;2022-08-25T05:12:38;94508.59;;;25.68;68.21
11971;BME280;6045;42.682;23.294;2022-08-25T05:15:06;94502.78;;;25.70;67.87
11971;BME280;6045;42.682;23.294;2022-08-25T05:17:47;94494.59;;;25.61;68.63
11971;BME280;6045;42.682;23.294;2022-08-25T05:20:15;94501.03;;;25.65;68.46
11971;BME280;6045;42.682;23.294;2022-08-25T05:22:43;94502.63;;;25.66;67.47
11971;BME280;6045;42.682;23.294;2022-08-25T05:25:12;94500.41;;;25.60;67.40
11971;BME280;6045;42.682;23.294;2022-08-25T05:27:40;94496.53;;;25.61;68.29
11971;BME280;6045;42.682;23.294;2022-08-25T05:30:08;94499.13;;;25.57;66.63
11971;BME280;6045;42.682;23.294;2022-08-25T05:32:36;94484.16;;;25.55;68.32
11971;BME280;6045;42.682;23.294;2022-08-25T05:35:05;94488.19;;;25.57;68.30
11971;BME280;6045;42.682;23.294;2022-08-25T05:37:33;94488.19;;;25.57;67.54
11971;BME280;6045;42.682;23.294;2022-08-25T05:40:04;94490.53;;;25.67;66.81
11971;BME280;6045;42.682;23.294;2022-08-25T05:42:32;94498.91;;;25.71;67.16
11971;BME280;6045;42.682;23.294;2022-08-25T05:45:00;94493.56;;;25.74;67.06
11971;BME280;6045;42.682;23.294;2022-08-25T05:47:26;94496.13;;;25.79;66.40
11971;BME280;6045;42.682;23.294;2022-08-25T05:49:53;94501.63;;;25.79;65.44
11971;BME280;6045;42.682;23.294;2022-08-25T05:52:25;94492.28;;;25.80;65.78
11971;BME280;6045;42.682;23.294;2022-08-25T05:54:53;94500.16;;;25.82;65.49
11971;BME280;6045;42.682;23.294;2022-08-25T05:57:20;94496.38;;;25.57;66.01
11971;BME280;6045;42.682;23.294;2022-08-25T05:59:47;94507.66;;;25.64;65.64
11971;BME280;6045;42.682;23.294;2022-08-25T06:02:14;94502.00;;;25.61;65.55
11971;BME280;6045;42.682;23.294;2022-08-25T06:04:59;94494.56;;;25.70;65.68
11971;BME280;6045;42.682;23.294;2022-08-25T06:07:26;94496.81;;;25.76;65.48
11971;BME280;6045;42.682;23.294;2022-08-25T06:09:54;94497.91;;;25.84;65.10
11971;BME280;6045;42.682;23.294;2022-08-25T06:12:21;94498.53;;;25.90;64.86
11971;BME280;6045;42.682;23.294;2022-08-25T06:14:48;94503.19;;;25.98;64.96
11971;BME280;6045;42.682;23.294;2022-08-25T06:17:15;94497.19;;;26.04;64.77
11971;BME280;6045;42.682;23.294;2022-08-25T06:19:42;94502.78;;;26.08;64.45
11971;BME280;6045;42.682;23.294;2022-08-25T06:22:10;94499.94;;;25.96;64.34
11971;BME280;6045;42.682;23.294;2022-08-25T06:24:36;94491.75;;;25.87;64.95
11971;BME280;6045;42.682;23.294;2022-08-25T06:27:05;94495.56;;;26.03;64.58
11971;BME280;6045;42.682;23.294;2022-08-25T06:29:32;94487.94;;;26.17;64.55
11971;BME280;6045;42.682;23.294;2022-08-25T06:31:59;94483.75;;;26.20;64.01
11971;BME280;6045;42.682;23.294;2022-08-25T06:34:26;94490.88;;;26.41;63.85
11971;BME280;6045;42.682;23.294;2022-08-25T06:36:53;94499.38;;;26.78;62.97
11971;BME280;6045;42.682;23.294;2022-08-25T06:39:20;94497.63;;;27.14;61.67
11971;BME280;6045;42.682;23.294;2022-08-25T06:41:52;94488.72;;;27.38;60.60
11971;BME280;6045;42.682;23.294;2022-08-25T06:44:21;94491.53;;;27.62;59.71
11971;BME280;6045;42.682;23.294;2022-08-25T06:46:48;94492.16;;;27.92;59.64
11971;BME280;6045;42.682;23.294;2022-08-25T06:49:15;94499.06;;;28.22;58.81
11971;BME280;6045;42.682;23.294;2022-08-25T06:51:42;94493.88;;;28.57;56.78
11971;BME280;6045;42.682;23.294;2022-08-25T06:54:10;94488.28;;;28.78;56.04
11971;BME280;6045;42.682;23.294;2022-08-25T06:56:39;94488.22;;;29.02;55.54
11971;BME280;6045;42.682;23.294;2022-08-25T06:59:07;94495.81;;;29.33;54.94
11971;BME280;6045;42.682;23.294;2022-08-25T07:01:38;94491.66;;;29.11;54.04
11971;BME280;6045;42.682;23.294;2022-08-25T07:04:06;94488.94;;;28.87;54.85
11971;BME280;6045;42.682;23.294;2022-08-25T07:06:34;94487.75;;;29.00;54.83
11971;BME280;6045;42.682;23.294;2022-08-25T07:09:02;94487.72;;;29.12;55.02
11971;BME280;6045;42.682;23.294;2022-08-25T07:11:30;94485.84;;;28.88;55.89
11971;BME280;6045;42.682;23.294;2022-08-25T07:13:59;94493.41;;;28.91;55.57
11971;BME280;6045;42.682;23.294;2022-08-25T07:16:29;94489.81;;;28.63;57.16
11971;BME280;6045;42.682;23.294;2022-08-25T07:19:01;94490.81;;;28.22;58.12
11971;BME280;6045;42.682;23.294;2022-08-25T07:21:31;94491.38;;;28.04;58.81
11971;BME280;6045;42.682;23.294;2022-08-25T07:23:58;94495.19;;;28.48;57.05
11971;BME280;6045;42.682;23.294;2022-08-25T07:26:28;94489.75;;;28.87;56.04
11971;BME280;6045;42.682;23.294;2022-08-25T07:28:56;94491.53;;;29.20;54.47
11971;BME280;6045;42.682;23.294;2022-08-25T07:31:24;94492.06;;;29.53;53.52
11971;BME280;6045;42.682;23.294;2022-08-25T07:33:53;94481.66;;;29.46;52.40
11971;BME280;6045;42.682;23.294;2022-08-25T07:36:39;94485.13;;;29.59;53.09
11971;BME280;6045;42.682;23.294;2022-08-25T07:39:09;94485.34;;;29.38;53.40
11971;BME280;6045;42.682;23.294;2022-08-25T07:41:38;94476.44;;;29.29;54.40
11971;BME280;6045;42.682;23.294;2022-08-25T07:44:06;94484.88;;;29.08;54.12
11971;BME280;6045;42.682;23.294;2022-08-25T07:46:34;94487.34;;;28.74;54.75
11971;BME280;6045;42.682;23.294;2022-08-25T07:49:01;94494.84;;;28.37;54.20
11971;BME280;6045;42.682;23.294;2022-08-25T07:51:29;94500.31;;;28.13;56.54
11971;BME280;6045;42.682;23.294;2022-08-25T07:53:58;94495.22;;;27.78;57.16
11971;BME280;6045;42.682;23.294;2022-08-25T07:56:25;94500.28;;;27.23;58.74
11971;BME280;6045;42.682;23.294;2022-08-25T07:58:52;94486.50;;;26.90;59.92
11971;BME280;6045;42.682;23.294;2022-08-25T08:01:20;94486.66;;;26.94;60.61
11971;BME280;6045;42.682;23.294;2022-08-25T08:03:48;94487.53;;;27.39;60.44
11971;BME280;6045;42.682;23.294;2022-08-25T08:06:17;94490.34;;;28.08;59.41
11971;BME280;6045;42.682;23.294;2022-08-25T08:08:46;94491.28;;;28.48;58.34
11971;BME280;6045;42.682;23.294;2022-08-25T08:11:19;94487.56;;;28.81;56.93
11971;BME280;6045;42.682;23.294;2022-08-25T08:13:48;94481.19;;;29.44;53.03
11971;BME280;6045;42.682;23.294;2022-08-25T08:16:16;94474.00;;;29.99;51.17
11971;BME280;6045;42.682;23.294;2022-08-25T08:18:44;94473.75;;;29.88;52.17
11971;BME280;6045;42.682;23.294;2022-08-25T08:21:13;94473.25;;;29.70;51.77
11971;BME280;6045;42.682;23.294;2022-08-25T08:23:40;94468.53;;;29.55;52.94
11971;BME280;6045;42.682;23.294;2022-08-25T08:26:09;94466.84;;;29.66;52.36
11971;BME280;6045;42.682;23.294;2022-08-25T08:28:37;94468.00;;;29.10;53.19
11971;BME280;6045;42.682;23.294;2022-08-25T08:31:05;94462.81;;;28.81;55.27
11971;BME280;6045;42.682;23.294;2022-08-25T08:33:33;94463.97;;;28.80;55.37
11971;BME280;6045;42.682;23.294;2022-08-25T08:36:04;94459.50;;;28.75;56.37
11971;BME280;6045;42.682;23.294;2022-08-25T08:38:32;94468.47;;;28.72;56.13
11971;BME280;6045;42.682;23.294;2022-08-25T08:41:07;94466.06;;;28.46;54.81
11971;BME280;6045;42.682;23.294;2022-08-25T08:44:03;94472.59;;;28.30;56.90
11971;BME280;6045;42.682;23.294;2022-08-25T08:46:43;94462.16;;;28.72;56.06
11971;BME280;6045;42.682;23.294;2022-08-25T08:49:21;94454.09;;;29.19;54.89
11971;BME280;6045;42.682;23.294;2022-08-25T08:51:55;94463.25;;;29.94;52.21
11971;BME280;6045;42.682;23.294;2022-08-25T08:54:24;94457.44;;;29.67;51.10
11971;BME280;6045;42.682;23.294;2022-08-25T08:57:01;94451.84;;;29.08;51.88
11971;BME280;6045;42.682;23.294;2022-08-25T08:59:39;94444.25;;;28.78;54.70
11971;BME280;6045;42.682;23.294;2022-08-25T09:02:13;94455.63;;;28.52;55.37
11971;BME280;6045;42.682;23.294;2022-08-25T09:04:45;94460.13;;;28.32;56.39
11971;BME280;6045;42.682;23.294;2022-08-25T09:07:18;94462.41;;;28.18;54.94
11971;BME280;6045;42.682;23.294;2022-08-25T09:09:48;94459.28;;;27.84;55.81
11971;BME280;6045;42.682;23.294;2022-08-25T09:12:23;94459.50;;;27.78;55.37
11971;BME280;6045;42.682;23.294;2022-08-25T09:15:03;94454.81;;;27.79;59.64
11971;BME280;6045;42.682;23.294;2022-08-25T09:17:46;94449.88;;;27.85;56.28
11971;BME280;6045;42.682;23.294;2022-08-25T09:20:28;94454.38;;;28.01;55.17
11971;BME280;6045;42.682;23.294;2022-08-25T09:23:02;94454.28;;;28.22;57.11
11971;BME280;6045;42.682;23.294;2022-08-25T09:25:42;94447.63;;;28.35;58.03
11971;BME280;6045;42.682;23.294;2022-08-25T09:28:17;94447.03;;;28.41;57.58
11971;BME280;6045;42.682;23.294;2022-08-25T09:30:50;94437.16;;;28.53;56.46
11971;BME280;6045;42.682;23.294;2022-08-25T09:33:21;94439.38;;;28.59;56.74
11971;BME280;6045;42.682;23.294;2022-08-25T09:35:50;94439.91;;;28.65;54.76
11971;BME280;6045;42.682;23.294;2022-08-25T09:38:20;94438.19;;;28.72;54.34
11971;BME280;6045;42.682;23.294;2022-08-25T09:40:50;94437.06;;;28.73;54.01
11971;BME280;6045;42.682;23.294;2022-08-25T09:43:22;94435.03;;;28.86;53.60
11971;BME280;6045;42.682;23.294;2022-08-25T09:45:58;94427.56;;;29.26;55.49
11971;BME280;6045;42.682;23.294;2022-08-25T09:48:27;94440.16;;;29.39;51.83
11971;BME280;6045;42.682;23.294;2022-08-25T09:50:58;94441.97;;;29.07;52.65
11971;BME280;6045;42.682;23.294;2022-08-25T09:53:27;94434.84;;;28.79;51.31
11971;BME280;6045;42.682;23.294;2022-08-25T09:55:59;94429.63;;;28.50;50.83
11971;BME280;6045;42.682;23.294;2022-08-25T09:58:29;94430.91;;;28.28;51.39
11971;BME280;6045;42.682;23.294;2022-08-25T10:01:11;94432.28;;;28.22;51.57
11971;BME280;6045;42.682;23.294;2022-08-25T10:03:52;94441.81;;;28.00;52.41
11971;BME280;6045;42.682;23.294;2022-08-25T10:06:20;94433.63;;;27.92;50.20
11971;BME280;6045;42.682;23.294;2022-08-25T10:08:53;94438.91;;;27.97;51.26
11971;BME280;6045;42.682;23.294;2022-08-25T10:11:32;94437.16;;;28.53;51.03
11971;BME280;6045;42.682;23.294;2022-08-25T10:14:02;94432.53;;;28.81;52.24
11971;BME280;6045;42.682;23.294;2022-08-25T10:16:31;94430.00;;;29.28;51.00
11971;BME280;6045;42.682;23.294;2022-08-25T10:19:04;94430.22;;;29.66;46.77
11971;BME280;6045;42.682;23.294;2022-08-25T10:21:35;94425.56;;;29.98;46.11
11971;BME280;6045;42.682;23.294;2022-08-25T10:24:03;94428.13;;;30.22;44.19
11971;BME280;6045;42.682;23.294;2022-08-25T10:26:39;94436.06;;;30.58;44.67
11971;BME280;6045;42.682;23.294;2022-08-25T10:29:21;94422.94;;;31.05;43.71
11971;BME280;6045;42.682;23.294;2022-08-25T10:31:59;94428.78;;;31.42;42.29
11971;BME280;6045;42.682;23.294;2022-08-25T10:34:41;94424.31;;;31.99;39.48
11971;BME280;6045;42.682;23.294;2022-08-25T10:37:18;94426.75;;;32.00;40.60
11971;BME280;6045;42.682;23.294;2022-08-25T10:39:56;94423.00;;;32.38;38.62
11971;BME280;6045;42.682;23.294;2022-08-25T10:42:32;94407.88;;;32.55;37.65
11971;BME280;6045;42.682;23.294;2022-08-25T10:45:14;94404.28;;;32.84;37.90
11971;BME280;6045;42.682;23.294;2022-08-25T10:50:54;94405.81;;;33.07;37.19
11971;BME280;6045;42.682;23.294;2022-08-25T10:53:27;94401.59;;;33.17;37.76
11971;BME280;6045;42.682;23.294;2022-08-25T10:56:08;94406.63;;;33.41;36.68
11971;BME280;6045;42.682;23.294;2022-08-25T11:01:42;94410.97;;;31.59;39.64
11971;BME280;6045;42.682;23.294;2022-08-25T11:04:14;94399.47;;;31.57;39.16
11971;BME280;6045;42.682;23.294;2022-08-25T11:06:49;94406.06;;;31.49;40.49
11971;BME280;6045;42.682;23.294;2022-08-25T11:09:20;94399.81;;;31.97;39.00
11971;BME280;6045;42.682;23.294;2022-08-25T11:11:53;94397.53;;;32.52;40.53
11971;BME280;6045;42.682;23.294;2022-08-25T11:14:31;94387.78;;;32.91;39.07
11971;BME280;6045;42.682;23.294;2022-08-25T11:17:05;94400.00;;;33.16;37.91
11971;BME280;6045;42.682;23.294;2022-08-25T11:19:38;94392.28;;;33.32;36.14
11971;BME280;6045;42.682;23.294;2022-08-25T11:22:12;94389.19;;;32.78;36.04
11971;BME280;6045;42.682;23.294;2022-08-25T11:24:51;94386.16;;;31.85;39.42
11971;BME280;6045;42.682;23.294;2022-08-25T11:27:30;94380.53;;;32.01;40.41
11971;BME280;6045;42.682;23.294;2022-08-25T11:30:05;94373.19;;;32.94;38.37
11971;BME280;6045;42.682;23.294;2022-08-25T11:32:33;94371.53;;;32.89;39.03
11971;BME280;6045;42.682;23.294;2022-08-25T11:35:04;94367.59;;;33.20;38.74
11971;BME280;6045;42.682;23.294;2022-08-25T11:37:32;94371.41;;;33.45;36.73
11971;BME280;6045;42.682;23.294;2022-08-25T11:40:19;94365.63;;;33.57;38.32
11971;BME280;6045;42.682;23.294;2022-08-25T11:43:00;94364.91;;;33.31;37.06
11971;BME280;6045;42.682;23.294;2022-08-25T11:45:51;94357.03;;;32.99;37.46
11971;BME280;6045;42.682;23.294;2022-08-25T11:48:29;94358.94;;;33.25;38.92
11971;BME280;6045;42.682;23.294;2022-08-25T11:51:03;94350.59;;;33.58;35.02
11971;BME280;6045;42.682;23.294;2022-08-25T11:53:33;94353.19;;;33.44;35.79
11971;BME280;6045;42.682;23.294;2022-08-25T11:56:03;94348.06;;;33.46;35.44
11971;BME280;6045;42.682;23.294;2022-08-25T11:58:43;94345.38;;;33.17;35.36
11971;BME280;6045;42.682;23.294;2022-08-25T12:04:31;94337.44;;;32.52;37.62
11971;BME280;6045;42.682;23.294;2022-08-25T12:07:20;94347.34;;;32.86;35.90
11971;BME280;6045;42.682;23.294;2022-08-25T12:10:18;94341.09;;;33.23;35.69
11971;BME280;6045;42.682;23.294;2022-08-25T12:13:05;94338.69;;;33.21;36.34
11971;BME280;6045;42.682;23.294;2022-08-25T12:15:59;94344.31;;;33.28;36.87
11971;BME280;6045;42.682;23.294;2022-08-25T12:18:41;94341.50;;;33.61;35.10
11971;BME280;6045;42.682;23.294;2022-08-25T12:21:28;94342.53;;;33.50;36.18
11971;BME280;6045;42.682;23.294;2022-08-25T12:24:14;94338.16;;;32.79;36.13
11971;BME280;6045;42.682;23.294;2022-08-25T12:26:53;94335.88;;;32.28;38.16
11971;BME280;6045;42.682;23.294;2022-08-25T12:29:29;94350.19;;;31.85;38.25
11971;BME280;6045;42.682;23.294;2022-08-25T12:32:12;94348.63;;;31.61;38.85
11971;BME280;6045;42.682;23.294;2022-08-25T12:37:28;94349.81;;;31.41;39.03
11971;BME280;6045;42.682;23.294;2022-08-25T12:39:59;94341.56;;;31.64;40.33
11971;BME280;6045;42.682;23.294;2022-08-25T12:42:29;94335.59;;;31.39;40.59
11971;BME280;6045;42.682;23.294;2022-08-25T12:47:53;94340.97;;;31.32;41.62
11971;BME280;6045;42.682;23.294;2022-08-25T12:50:27;94337.13;;;31.37;40.15
11971;BME280;6045;42.682;23.294;2022-08-25T12:53:05;94329.44;;;31.27;37.76
11971;BME280;6045;42.682;23.294;2022-08-25T12:55:35;94336.50;;;31.05;38.01
11971;BME280;6045;42.682;23.294;2022-08-25T12:58:03;94340.28;;;30.78;39.18
11971;BME280;6045;42.682;23.294;2022-08-25T13:00:36;94331.00;;;30.32;41.58
11971;BME280;6045;42.682;23.294;2022-08-25T13:03:35;94341.28;;;30.16;41.90
11971;BME280;6045;42.682;23.294;2022-08-25T13:06:15;94334.50;;;30.29;40.49
11971;BME280;6045;42.682;23.294;2022-08-25T13:09:19;94336.22;;;30.72;40.85
11971;BME280;6045;42.682;23.294;2022-08-25T13:11:55;94333.53;;;30.75;38.97
11971;BME280;6045;42.682;23.294;2022-08-25T13:14:33;94337.16;;;30.60;41.14
11971;BME280;6045;42.682;23.294;2022-08-25T13:17:02;94336.50;;;30.32;40.09
11971;BME280;6045;42.682;23.294;2022-08-25T13:19:29;94336.94;;;30.15;40.73
11971;BME280;6045;42.682;23.294;2022-08-25T13:21:57;94341.06;;;29.90;39.27
11971;BME280;6045;42.682;23.294;2022-08-25T13:24:26;94337.22;;;29.94;40.67
11971;BME280;6045;42.682;23.294;2022-08-25T13:26:59;94342.47;;;29.99;41.18
11971;BME280;6045;42.682;23.294;2022-08-25T13:29:28;94325.97;;;30.18;40.31
11971;BME280;6045;42.682;23.294;2022-08-25T13:31:58;94333.75;;;30.48;40.00
11971;BME280;6045;42.682;23.294;2022-08-25T13:34:29;94329.38;;;30.47;38.99